Terminal Aerodrome Forecast
Issued by NWS Sioux Falls, SD

Home | Current Version | Previous Version | Text Only | Print | Product List | Glossary Off
Versions: 1 2 3 4 5 6 7 8 9 10 11 12 13 14 15 16 17 18 19

000
FTUS43 KFSD 252037 AAA
TAFFSD
TAF AMD
KFSD 252037Z 2521/2618 06012KT P6SM BKN012 BKN070
     FM260600 01010KT P6SM BKN007 OVC020
     FM261000 36012KT P6SM OVC007
      TEMPO 2610/2614 5SM -SN
     FM261400 35012KT 5SM -SN OVC012=

USA.gov is the U.S. government's official web portal to all federal, state and local government web resources and services.